• Join FlightAware (Why Join?)
  • Login
  • US Flag 
07:57PM EDT


 

Airport Tracker/Info


-or-


 

Live Flight TrackerFlight Track Log ✈ SWA2055 ✈ 06-Apr-2014 ✈ KSMF - KLAX

Flight Track Log - Related Links

Times and Time Zones

All times are in EDT time to prevent confusion due to time zone crossing. See the SWA2055 flight status page for this flight to view local times or setup timezone preferences in your user account.

Time Position Orientation Groundspeed Altitude Reporting Facility
EDT Latitude Longitude Course Direction KTS MPH feet Rate Location/Type
01:08AM 38.7333 -121.6000 108° East 159 183 1,900  Level Northern Cal TRACON
01:09AM 38.7167 -121.5333 108° East 241 277 4,100 2,460 Climbing Northern Cal TRACON
01:11AM 38.6425 -121.4231 131° Southeast 267 307 9,200 2,640 Climbing Oakland Center
01:12AM 38.5953 -121.3369 125° Southeast 307 353 11,600 2,280 Climbing Oakland Center
01:13AM 38.5364 -121.2325 126° Southeast 361 415 13,800 2,460 Climbing Oakland Center
01:14AM 38.4725 -121.1158 125° Southeast 375 432 16,700 2,400 Climbing Oakland Center
01:15AM 38.4069 -120.9975 125° Southeast 404 465 18,700 2,100 Climbing Oakland Center
01:16AM 38.3233 -120.8528 126° Southeast 423 487 21,400 1,980 Climbing Oakland Center
01:17AM 38.2511 -120.7283 126° Southeast 430 495 23,200 1,680 Climbing Oakland Center
01:18AM 38.1761 -120.5958 126° Southeast 457 526 24,900 1,680 Climbing Oakland Center
01:19AM 38.0983 -120.4625 127° Southeast 467 537 26,600 1,380 Climbing Oakland Center
01:20AM 38.0011 -120.3453 136° Southeast 484 557 27,800 1,320 Climbing Oakland Center
01:21AM 37.8842 -120.2506 147° Southeast 496 571 29,300 1,500 Climbing Oakland Center
01:22AM 37.7711 -120.1528 146° Southeast 495 570 30,900 840 Climbing Oakland Center
01:23AM 37.6567 -120.0572 147° Southeast 495 570 31,000  Climbing Oakland Center
01:24AM 37.5447 -119.9606 146° Southeast 490 564 31,000  Level Oakland Center
01:25AM 37.4314 -119.8686 147° Southeast 487 560 31,000  Level Oakland Center
01:26AM 37.3142 -119.7714 147° Southeast 492 566 31,000  Level Oakland Center
01:27AM 37.1947 -119.6778 148° Southeast 502 578 31,000  Level Oakland Center
01:28AM 37.0561 -119.6622 175° South 502 578 31,000 900 Level Oakland Center
01:29AM 36.9206 -119.6561 178° South 492 566 32,900 1,620 Climbing Oakland Center
01:30AM 36.7869 -119.6514 178° South 484 557 34,400 1,140 Climbing Oakland Center
01:31AM 36.6536 -119.6436 177° South 483 556 35,200 1,080 Climbing Oakland Center
01:32AM 36.4919 -119.6369 178° South 482 555 36,600 840 Climbing Oakland Center
01:33AM 36.3572 -119.6314 178° South 483 556 37,000 180 Climbing Oakland Center
01:34AM 36.2219 -119.6244 178° South 483 556 37,000  Level Oakland Center
01:35AM 36.0878 -119.6197 178° South 483 556 37,000  Level Oakland Center
01:36AM 35.9536 -119.6153 178° South 483 556 37,000  Level Oakland Center
01:37AM 35.8197 -119.6214 182° South 482 555 37,000  Level Oakland Center
01:38AM 35.6856 -119.6267 182° South 482 555 37,000  Level Oakland Center
01:39AM 35.5783 -119.6303 182° South 478 550 37,000  Level Los Angeles Center
01:40AM 35.4447 -119.6356 182° South 478 550 37,000  Level Los Angeles Center
01:41AM 35.3108 -119.6406 182° South 478 550 37,000 -540 Level Los Angeles Center
01:42AM 35.1850 -119.5828 159° South 486 559 35,900 -2,160 Descending Los Angeles Center
01:43AM 35.0739 -119.4856 144° Southeast 488 562 32,700 -3,000 Descending Los Angeles Center
01:44AM 34.9617 -119.3900 145° Southeast 490 564 29,800 -2,640 Descending Los Angeles Center
01:45AM 34.8542 -119.2986 145° Southeast 476 548 27,400 -2,340 Descending Los Angeles Center
01:46AM 34.7511 -119.2100 145° Southeast 456 525 25,100 -2,220 Descending Los Angeles Center
01:47AM 34.6514 -119.1253 145° Southeast 442 509 22,900 -2,220 Descending Los Angeles Center
01:48AM 34.5497 -119.0425 146° Southeast 418 481 20,600 -2,220 Descending Los Angeles Center
01:49AM 34.4597 -118.9697 146° Southeast 392 451 18,500 -2,040 Descending Los Angeles Center
01:50AM 34.3758 -118.8978 145° Southeast 370 426 16,500 -2,040 Descending Los Angeles Center
01:51AM 34.2842 -118.8558 159° South 354 407 14,500 -1,980 Descending Los Angeles Center
01:52AM 34.1931 -118.8214 163° South 347 399 12,500 -1,740 Descending Los Angeles Center
01:53AM 34.1236 -118.7631 145° Southeast 329 379 11,000 -1,260 Descending Los Angeles Center
01:54AM 34.0864 -118.6581 113° Southeast 295 339 10,000 -1,200 Descending Los Angeles Center
01:55AM 34.0550 -118.5761 115° Southeast 270 311 8,600 -1,500 Descending Los Angeles Center
01:56AM 34.0231 -118.4911 114° Southeast 276 318 7,000 -840 Descending Los Angeles Center
01:57AM 34.0169 -118.4050 95° East 261 300 6,900 -1,080 Descending Los Angeles Center
01:58AM 34.0225 -118.3206 85° East 253 291 4,900 -2,040 Descending Los Angeles Center
01:59AM 34.0208 -118.2408 91° East 252 290 2,900 -1,440 Descending Los Angeles Center
02:00AM 33.9800 -118.2636 205° Southwest 211 243 2,100 -720 Descending Los Angeles Center
02:01AM 33.9606 -118.3153 246° West 185 213 1,500 -600 Descending Los Angeles Center
02:02AM 33.9575 -118.3628 266° West 160 184 900 -660 Descending Los Angeles Center
02:03AM 33.9517 -118.4117 262° West 147 169 200 -720 Descending Los Angeles Center
02:05AM 33.9425 -118.4081 228° Southwest  Level Estimated